createdAt,value
2023-06-29T00:00:58.338Z,98583.19
2023-06-29T00:03:59.926Z,98577.88
2023-06-29T00:07:04.125Z,98583.72
2023-06-29T00:10:06.102Z,98583.75
2023-06-29T00:13:07.507Z,98582.78
2023-06-29T00:16:08.946Z,98580.31
2023-06-29T00:19:12.965Z,98571.09
2023-06-29T00:22:14.815Z,98567.81
2023-06-29T00:25:18.081Z,98564.09
2023-06-29T00:28:19.611Z,98557.19
2023-06-29T00:31:23.523Z,98558.31
2023-06-29T00:34:24.968Z,98555.75
2023-06-29T00:37:26.374Z,98564.66
2023-06-29T00:40:27.794Z,98551.75
2023-06-29T00:43:29.225Z,98554.44
2023-06-29T00:46:30.686Z,98547.72
2023-06-29T00:49:32.187Z,98537.19
2023-06-29T00:52:33.566Z,98533.94
2023-06-29T00:55:34.974Z,98532.91
2023-06-29T00:58:36.496Z,98536.28
2023-06-29T01:01:40.970Z,98529.31
2023-06-29T01:04:42.749Z,98523.91
2023-06-29T01:07:47.096Z,98520.47
2023-06-29T01:10:48.512Z,98510.31
2023-06-29T01:13:49.910Z,98501.69
2023-06-29T01:16:51.354Z,98498.28
2023-06-29T01:19:52.990Z,98494.03
2023-06-29T01:23:00.923Z,98498.28
2023-06-29T01:26:02.353Z,98491.22
2023-06-29T01:29:05.183Z,98497.19
2023-06-29T01:32:08.419Z,98495.41
2023-06-29T01:35:09.930Z,98503.94
2023-06-29T01:38:16.244Z,98498.03
2023-06-29T01:41:17.898Z,98496.38
2023-06-29T01:44:19.928Z,98483.59
2023-06-29T01:47:21.565Z,98477.66
2023-06-29T01:50:22.975Z,98477.56
2023-06-29T01:53:24.369Z,98478.53
2023-06-29T01:56:25.806Z,98478.69
2023-06-29T01:59:27.491Z,98480.22
2023-06-29T02:02:28.988Z,98480.91
2023-06-29T02:05:30.512Z,98477.78
2023-06-29T02:08:31.921Z,98482.63
2023-06-29T02:11:33.272Z,98476.66
2023-06-29T02:14:34.706Z,98481.63
2023-06-29T02:17:36.185Z,98477.38
2023-06-29T02:20:37.600Z,98472.09
2023-06-29T02:23:39.026Z,98476.63
2023-06-29T02:26:40.420Z,98473.03
2023-06-29T02:29:41.823Z,98474.94
2023-06-29T02:32:43.374Z,98466.44
2023-06-29T02:35:45.054Z,98467.25
2023-06-29T02:38:46.615Z,98460.31
2023-06-29T02:41:48.000Z,98459.50
2023-06-29T02:44:49.358Z,98453.44
2023-06-29T02:47:50.838Z,98449.13
2023-06-29T02:50:52.302Z,98452.50
2023-06-29T02:53:53.756Z,98453.03
2023-06-29T02:56:55.205Z,98453.75
2023-06-29T02:59:56.591Z,98445.66
2023-06-29T03:02:58.141Z,98461.13
2023-06-29T03:05:59.615Z,98451.88
2023-06-29T03:09:00.997Z,98450.97
2023-06-29T03:12:02.427Z,98451.16
2023-06-29T03:15:04.038Z,98447.69
2023-06-29T03:18:05.448Z,98450.28
2023-06-29T03:21:16.276Z,98447.78
2023-06-29T03:24:19.145Z,98446.28
2023-06-29T03:27:20.590Z,98438.50
2023-06-29T03:30:22.002Z,98439.28
2023-06-29T03:33:23.419Z,98439.34
2023-06-29T03:36:25.121Z,98435.88
2023-06-29T03:39:26.522Z,98438.56
2023-06-29T03:42:27.950Z,98438.50
2023-06-29T03:45:29.363Z,98437.38
2023-06-29T03:48:31.012Z,98433.78
2023-06-29T03:51:32.590Z,98435.38
2023-06-29T03:54:33.975Z,98440.75
2023-06-29T03:57:35.425Z,98439.19
2023-06-29T04:00:36.788Z,98440.06
2023-06-29T04:03:38.195Z,98435.69
2023-06-29T04:06:39.714Z,98431.78
2023-06-29T04:09:41.175Z,98429.16
2023-06-29T04:12:42.626Z,98427.56
2023-06-29T04:15:44.529Z,98437.88
2023-06-29T04:18:46.445Z,98442.16
2023-06-29T04:21:47.858Z,98447.97
2023-06-29T04:24:49.304Z,98443.63
2023-06-29T04:27:50.728Z,98452.00
2023-06-29T04:30:52.144Z,98447.22
2023-06-29T04:33:53.558Z,98448.78
2023-06-29T04:36:57.640Z,98449.53
2023-06-29T04:39:59.132Z,98447.69
2023-06-29T04:43:00.550Z,98446.06
2023-06-29T04:46:02.295Z,98452.56
2023-06-29T04:49:06.553Z,98462.09
2023-06-29T04:52:11.174Z,98457.50
2023-06-29T04:55:12.711Z,98463.38
2023-06-29T04:58:14.208Z,98457.00
2023-06-29T05:01:15.704Z,98463.66
2023-06-29T05:04:17.628Z,98458.84
2023-06-29T05:07:20.873Z,98455.97
2023-06-29T05:10:22.424Z,98466.16
2023-06-29T05:13:23.860Z,98459.00
2023-06-29T05:16:25.358Z,98458.66
2023-06-29T05:19:26.912Z,98453.66
2023-06-29T05:22:28.419Z,98454.16
2023-06-29T05:25:29.889Z,98458.31
2023-06-29T05:28:31.283Z,98459.72
2023-06-29T05:31:32.794Z,98462.84
2023-06-29T05:34:34.389Z,98453.66
2023-06-29T05:37:35.865Z,98450.88
2023-06-29T05:40:37.394Z,98453.75
2023-06-29T05:43:38.828Z,98453.34
2023-06-29T05:46:40.486Z,98449.13
2023-06-29T05:49:42.077Z,98453.00
2023-06-29T05:52:43.478Z,98456.25
2023-06-29T05:55:44.877Z,98454.19
2023-06-29T05:58:46.288Z,98460.78
2023-06-29T06:01:47.829Z,98456.66
2023-06-29T06:04:49.281Z,98455.84
2023-06-29T06:07:50.666Z,98465.88
2023-06-29T06:10:52.741Z,98462.66
2023-06-29T06:13:54.219Z,98462.22
2023-06-29T06:16:55.703Z,98463.88
2023-06-29T06:19:57.169Z,98464.22
2023-06-29T06:22:58.841Z,98459.94
2023-06-29T06:26:00.360Z,98469.88
2023-06-29T06:29:01.738Z,98474.00
2023-06-29T06:32:03.596Z,98468.63
2023-06-29T06:35:05.990Z,98470.28
2023-06-29T06:38:07.403Z,98470.63
2023-06-29T06:41:08.858Z,98472.31
2023-06-29T06:44:10.270Z,98467.13
2023-06-29T06:47:11.671Z,98466.22
2023-06-29T06:50:13.134Z,98460.66
2023-06-29T06:53:14.610Z,98457.53
2023-06-29T06:56:16.025Z,98456.06
2023-06-29T06:59:17.488Z,98454.69
2023-06-29T07:02:19.118Z,98452.72
2023-06-29T07:05:20.501Z,98459.38
2023-06-29T07:08:22.527Z,98459.88
2023-06-29T07:11:23.961Z,98453.28
2023-06-29T07:14:25.458Z,98460.56
2023-06-29T07:17:28.770Z,98465.03
2023-06-29T07:26:39.482Z,98461.41
2023-06-29T07:29:43.752Z,98454.22
2023-06-29T07:32:45.504Z,98451.78
2023-06-29T07:35:47.136Z,98445.88
2023-06-29T07:38:48.593Z,98449.81
2023-06-29T07:41:50.218Z,98450.72
2023-06-29T07:44:51.662Z,98446.94
2023-06-29T07:47:53.468Z,98448.72
2023-06-29T07:50:55.117Z,98460.28
2023-06-29T07:53:56.640Z,98459.75
2023-06-29T08:00:02.542Z,98451.06
2023-06-29T08:03:04.042Z,98455.41
2023-06-29T08:09:10.048Z,98459.84
2023-06-29T08:12:11.440Z,98456.06
2023-06-29T08:15:12.824Z,98455.38
2023-06-29T08:18:14.255Z,98455.66
2023-06-29T08:21:15.640Z,98457.16
2023-06-29T08:24:17.909Z,98461.06
2023-06-29T08:27:20.797Z,98470.19
2023-06-29T08:30:22.496Z,98463.78
2023-06-29T08:33:24.941Z,98465.09
2023-06-29T08:36:29.189Z,98466.13
2023-06-29T08:39:31.196Z,98453.81
2023-06-29T08:42:32.622Z,98464.59
2023-06-29T08:45:34.047Z,98460.16
2023-06-29T08:48:35.528Z,98457.38
2023-06-29T08:51:38.203Z,98454.59
2023-06-29T08:54:39.796Z,98451.75
2023-06-29T08:57:41.189Z,98442.88
2023-06-29T09:00:42.747Z,98449.66
2023-06-29T09:03:44.468Z,98445.84
2023-06-29T09:06:46.666Z,98454.19
2023-06-29T09:09:48.102Z,98452.22
2023-06-29T09:12:50.501Z,98456.91
2023-06-29T09:15:52.293Z,98454.69
2023-06-29T09:18:55.593Z,98450.31
2023-06-29T09:21:59.175Z,98445.69
2023-06-29T09:25:07.683Z,98445.66
2023-06-29T09:28:18.334Z,98447.88
2023-06-29T09:31:20.281Z,98441.63
2023-06-29T09:34:22.233Z,98443.09
2023-06-29T09:37:23.633Z,98445.09
2023-06-29T09:40:25.054Z,98443.41
2023-06-29T09:43:26.873Z,98443.38
2023-06-29T09:46:29.640Z,98455.06
2023-06-29T09:49:31.592Z,98439.63
2023-06-29T09:52:33.133Z,98444.97
2023-06-29T09:55:34.807Z,98443.13
2023-06-29T09:58:36.171Z,98441.28
2023-06-29T10:01:38.109Z,98445.09
2023-06-29T10:04:42.477Z,98441.97
2023-06-29T10:07:44.020Z,98439.94
2023-06-29T10:10:45.739Z,98444.41
2023-06-29T10:13:48.911Z,98432.50
2023-06-29T10:16:51.709Z,98434.47
2023-06-29T10:19:53.310Z,98435.72
2023-06-29T10:22:54.814Z,98432.38
2023-06-29T10:25:56.197Z,98427.81
2023-06-29T10:28:57.590Z,98431.63
2023-06-29T10:31:59.220Z,98438.78
2023-06-29T10:35:01.384Z,98440.47
2023-06-29T10:38:02.870Z,98435.28
2023-06-29T10:41:06.000Z,98436.75
2023-06-29T10:44:07.492Z,98426.53
2023-06-29T10:47:13.980Z,98422.19
2023-06-29T10:50:15.385Z,98420.91
2023-06-29T10:53:17.584Z,98421.78
2023-06-29T10:56:31.635Z,98421.25
2023-06-29T10:59:34.834Z,98416.53
2023-06-29T11:02:36.253Z,98416.06
2023-06-29T11:05:37.803Z,98427.22
2023-06-29T11:08:39.195Z,98415.75
2023-06-29T11:11:40.979Z,98420.34
2023-06-29T11:14:43.411Z,98424.56
2023-06-29T11:17:47.278Z,98416.69
2023-06-29T11:20:48.740Z,98418.84
2023-06-29T11:23:51.442Z,98416.34
2023-06-29T11:26:54.126Z,98412.06
2023-06-29T11:29:56.043Z,98425.25
2023-06-29T11:32:57.559Z,98416.03
2023-06-29T11:36:01.797Z,98415.56
2023-06-29T11:39:10.329Z,98416.56
2023-06-29T11:42:11.915Z,98415.28
2023-06-29T11:45:13.386Z,98411.34
2023-06-29T11:48:14.818Z,98412.28
2023-06-29T11:51:17.790Z,98405.56
2023-06-29T11:54:19.285Z,98405.91
2023-06-29T11:57:21.182Z,98398.59
2023-06-29T12:00:23.165Z,98394.59
2023-06-29T12:03:25.060Z,98397.69
2023-06-29T12:06:26.531Z,98390.44
2023-06-29T12:09:31.727Z,98387.31
2023-06-29T12:12:42.124Z,98386.09
2023-06-29T12:17:59.148Z,98380.38
2023-06-29T12:19:11.572Z,98381.91
2023-06-29T12:22:15.333Z,98380.41
2023-06-29T12:25:17.457Z,98378.38
2023-06-29T12:28:19.622Z,98381.50
2023-06-29T12:31:25.160Z,98383.66
2023-06-29T12:34:26.581Z,98373.91
2023-06-29T12:37:27.946Z,98372.13
2023-06-29T12:40:30.504Z,98364.72
2023-06-29T12:43:33.418Z,98352.25
2023-06-29T12:46:34.827Z,98353.84
2023-06-29T12:49:37.756Z,98357.06
2023-06-29T12:52:39.212Z,98352.13
2023-06-29T12:55:40.993Z,98346.38
2023-06-29T12:58:42.459Z,98358.22
2023-06-29T13:01:43.870Z,98356.00
2023-06-29T13:04:45.326Z,98351.44
2023-06-29T13:07:46.764Z,98348.56
2023-06-29T13:10:48.183Z,98346.78
2023-06-29T13:13:49.545Z,98350.69
2023-06-29T13:16:50.980Z,98345.69
2023-06-29T13:19:52.540Z,98348.88
2023-06-29T13:22:53.977Z,98347.63
2023-06-29T13:25:55.374Z,98348.31
2023-06-29T13:28:56.884Z,98342.19
2023-06-29T13:32:00.529Z,98340.25
2023-06-29T13:35:02.149Z,98341.09
2023-06-29T13:38:03.537Z,98342.28
2023-06-29T13:41:05.150Z,98350.53
2023-06-29T13:44:06.682Z,98333.47
2023-06-29T13:47:08.154Z,98332.59
2023-06-29T13:50:09.942Z,98329.41
2023-06-29T13:53:11.414Z,98338.78
2023-06-29T13:56:12.815Z,98333.81
2023-06-29T13:59:14.216Z,98327.41
2023-06-29T14:02:15.736Z,98328.03
2023-06-29T14:05:17.178Z,98326.16
2023-06-29T14:08:18.579Z,98321.56
2023-06-29T14:11:19.957Z,98318.91
2023-06-29T14:14:21.338Z,98321.31
2023-06-29T14:17:22.899Z,98309.25
2023-06-29T14:20:24.393Z,98299.72
2023-06-29T14:23:26.265Z,98298.66
2023-06-29T14:26:27.678Z,98297.16
2023-06-29T14:29:29.327Z,98296.25
2023-06-29T14:32:30.758Z,98297.13
2023-06-29T14:35:32.385Z,98298.06
2023-06-29T14:38:33.919Z,98304.22
2023-06-29T14:41:35.402Z,98293.56
2023-06-29T14:44:36.804Z,98300.34
2023-06-29T14:47:38.251Z,98300.56
2023-06-29T14:50:39.712Z,98298.00
2023-06-29T14:53:41.283Z,98286.25
2023-06-29T14:56:42.680Z,98286.19
2023-06-29T14:59:44.083Z,98288.00
2023-06-29T15:02:45.592Z,98295.09
2023-06-29T15:05:47.654Z,98284.13
2023-06-29T15:08:49.297Z,98280.84
2023-06-29T15:11:50.981Z,98281.69
2023-06-29T15:14:52.410Z,98280.53
2023-06-29T15:17:53.866Z,98279.56
2023-06-29T15:20:55.508Z,98272.00
2023-06-29T15:23:56.924Z,98270.94
2023-06-29T15:26:58.546Z,98271.44
2023-06-29T15:30:00.753Z,98270.22
2023-06-29T15:33:02.364Z,98260.00
2023-06-29T15:36:03.839Z,98272.88
2023-06-29T15:39:05.250Z,98266.50
2023-06-29T15:42:06.675Z,98258.13
2023-06-29T15:45:08.240Z,98267.19
2023-06-29T15:48:09.764Z,98257.97
2023-06-29T15:51:11.298Z,98262.91
2023-06-29T15:54:12.750Z,98255.66
2023-06-29T15:57:14.171Z,98260.47
2023-06-29T16:00:15.718Z,98262.03
2023-06-29T16:03:17.209Z,98252.31
2023-06-29T16:06:28.575Z,98246.22
2023-06-29T16:09:33.287Z,98245.91
2023-06-29T16:12:34.740Z,98236.41
2023-06-29T16:15:36.367Z,98245.75
2023-06-29T16:18:37.765Z,98233.47
2023-06-29T16:21:40.160Z,98229.91
2023-06-29T16:24:41.545Z,98232.38
2023-06-29T16:27:42.942Z,98228.13
2023-06-29T16:30:44.327Z,98221.78
2023-06-29T16:33:46.981Z,98219.66
2023-06-29T16:36:48.442Z,98219.81
2023-06-29T16:39:49.913Z,98224.47
2023-06-29T16:42:51.331Z,98222.75
2023-06-29T16:45:52.785Z,98218.84
2023-06-29T16:48:57.889Z,98224.78
2023-06-29T16:51:59.494Z,98234.53
2023-06-29T16:55:00.909Z,98223.84
2023-06-29T16:58:03.845Z,98216.81
2023-06-29T17:01:05.280Z,98215.63
2023-06-29T17:04:06.881Z,98214.66
2023-06-29T17:07:08.479Z,98216.34
2023-06-29T17:10:10.015Z,98223.16
2023-06-29T17:13:11.428Z,98221.84
2023-06-29T17:16:12.933Z,98220.84
2023-06-29T17:19:14.619Z,98225.31
2023-06-29T17:22:16.017Z,98225.16
2023-06-29T17:25:17.448Z,98220.31
2023-06-29T17:28:19.156Z,98218.97
2023-06-29T17:31:20.603Z,98227.09
2023-06-29T17:34:22.026Z,98230.63
2023-06-29T17:37:23.435Z,98228.78
2023-06-29T17:40:25.031Z,98237.16
2023-06-29T17:43:26.530Z,98234.06
2023-06-29T17:46:27.986Z,98234.06
2023-06-29T17:49:29.378Z,98238.09
2023-06-29T17:52:31.309Z,98245.38
2023-06-29T17:55:32.776Z,98239.13
2023-06-29T17:58:34.164Z,98241.78
2023-06-29T18:01:35.594Z,98234.09
2023-06-29T18:04:37.122Z,98229.84
2023-06-29T18:07:38.782Z,98237.06
2023-06-29T18:10:40.315Z,98236.56
2023-06-29T18:13:41.777Z,98240.22
2023-06-29T18:16:43.314Z,98243.88
2023-06-29T18:19:44.891Z,98240.47
2023-06-29T18:22:46.293Z,98241.47
2023-06-29T18:25:47.944Z,98234.84
2023-06-29T18:28:49.625Z,98236.72
2023-06-29T18:31:51.041Z,98242.06
2023-06-29T18:34:52.562Z,98244.09
2023-06-29T18:37:54.015Z,98239.38
2023-06-29T18:41:01.800Z,98241.03
2023-06-29T18:44:03.704Z,98232.06
2023-06-29T18:47:07.053Z,98235.06
2023-06-29T18:50:08.673Z,98251.59
2023-06-29T18:53:10.070Z,98244.34
2023-06-29T18:56:11.465Z,98242.22
2023-06-29T18:59:13.835Z,98232.75
2023-06-29T19:02:15.332Z,98239.81
2023-06-29T19:05:18.825Z,98242.72
2023-06-29T19:08:21.297Z,98242.53
2023-06-29T19:11:24.382Z,98239.91
2023-06-29T19:14:25.827Z,98233.06
2023-06-29T19:17:29.060Z,98239.66
2023-06-29T19:20:30.702Z,98233.38
2023-06-29T19:23:32.118Z,98237.50
2023-06-29T19:26:33.621Z,98233.66
2023-06-29T19:29:35.164Z,98234.41
2023-06-29T19:32:36.913Z,98238.97
2023-06-29T19:35:38.997Z,98237.16
2023-06-29T19:38:40.462Z,98236.56
2023-06-29T19:41:42.073Z,98242.94
2023-06-29T19:44:43.502Z,98235.13
2023-06-29T19:47:44.989Z,98236.09
2023-06-29T19:50:46.447Z,98239.50
2023-06-29T19:53:47.850Z,98236.16
2023-06-29T19:56:49.766Z,98245.63
2023-06-29T19:59:51.269Z,98248.69
2023-06-29T20:02:53.208Z,98247.19
2023-06-29T20:05:54.834Z,98247.47
2023-06-29T20:08:56.261Z,98244.56
2023-06-29T20:11:57.729Z,98244.00
2023-06-29T20:14:59.132Z,98242.50
2023-06-29T20:18:00.860Z,98240.69
2023-06-29T20:21:02.394Z,98236.13
2023-06-29T20:24:04.182Z,98247.69
2023-06-29T20:27:08.631Z,98236.34
2023-06-29T20:30:10.121Z,98234.13
2023-06-29T20:33:11.523Z,98233.66
2023-06-29T20:36:13.729Z,98232.22
2023-06-29T20:39:15.230Z,98240.63
2023-06-29T20:42:16.621Z,98246.59
2023-06-29T20:45:18.042Z,98240.88
2023-06-29T20:48:19.481Z,98235.19
2023-06-29T20:51:20.908Z,98230.66
2023-06-29T20:54:22.401Z,98226.00
2023-06-29T20:57:23.788Z,98234.41
2023-06-29T21:00:25.178Z,98228.47
2023-06-29T21:03:27.133Z,98230.06
2023-06-29T21:06:28.636Z,98228.59
2023-06-29T21:09:30.043Z,98219.69
2023-06-29T21:12:31.429Z,98219.31
2023-06-29T21:15:33.193Z,98221.28
2023-06-29T21:18:34.730Z,98219.97
2023-06-29T21:21:36.198Z,98222.09
2023-06-29T21:24:37.668Z,98223.06
2023-06-29T21:27:39.041Z,98217.91
2023-06-29T21:30:40.485Z,98218.34
2023-06-29T21:33:41.960Z,98215.78
2023-06-29T21:36:43.323Z,98216.72
2023-06-29T21:39:44.728Z,98220.94
2023-06-29T21:42:46.113Z,98227.44
2023-06-29T21:45:47.691Z,98226.00
2023-06-29T21:48:49.210Z,98224.34
2023-06-29T21:51:50.639Z,98221.75
2023-06-29T21:54:52.025Z,98219.94
2023-06-29T21:57:54.779Z,98218.16
2023-06-29T22:00:57.807Z,98210.72
2023-06-29T22:03:59.285Z,98206.94
2023-06-29T22:07:11.640Z,98204.84
2023-06-29T22:10:17.394Z,98203.66
2023-06-29T22:13:18.772Z,98202.56
2023-06-29T22:16:21.737Z,98201.19
2023-06-29T22:19:24.768Z,98207.75
2023-06-29T22:22:26.139Z,98203.44
2023-06-29T22:25:29.777Z,98194.22
2023-06-29T22:28:31.423Z,98199.78
2023-06-29T22:31:32.829Z,98183.47
2023-06-29T22:34:34.249Z,98179.19
2023-06-29T22:37:35.669Z,98178.84
2023-06-29T22:40:37.463Z,98186.00
2023-06-29T22:43:38.924Z,98186.59
2023-06-29T22:46:40.318Z,98190.16
2023-06-29T22:49:41.776Z,98188.38
2023-06-29T22:52:43.426Z,98186.09
2023-06-29T22:55:45.124Z,98187.69
2023-06-29T22:58:46.729Z,98180.84
2023-06-29T23:01:50.328Z,98183.03
2023-06-29T23:04:53.496Z,98182.09
2023-06-29T23:07:55.059Z,98182.69
2023-06-29T23:10:57.538Z,98182.38
2023-06-29T23:13:59.988Z,98179.94
2023-06-29T23:17:04.267Z,98173.00
2023-06-29T23:20:11.790Z,98169.13
2023-06-29T23:23:16.248Z,98172.56
2023-06-29T23:26:20.289Z,98166.59
2023-06-29T23:29:21.950Z,98171.28
2023-06-29T23:32:23.425Z,98174.16
2023-06-29T23:35:26.474Z,98164.78
2023-06-29T23:38:27.877Z,98165.63
2023-06-29T23:41:29.544Z,98157.72
2023-06-29T23:44:31.063Z,98156.47
2023-06-29T23:47:32.483Z,98157.31
2023-06-29T23:50:33.916Z,98156.06
2023-06-29T23:53:38.377Z,98149.88
2023-06-29T23:56:40.136Z,98142.41
2023-06-29T23:59:41.630Z,98140.91
